首页
METAR-TAF:

METAR-TAF

机场 :

塞萨洛尼基马其顿国际机场

塞萨洛尼基, 希腊

纬度: 40-31N, 经度: 022-58E, 海拔: 8米

当前天气观测

该预报发布于33分钟前的01:20 UTC
风速4节,风向
温度 14°C
湿度 94%
气压 1021 hPa
能見度: 7000
少量云层高于1000英尺

METAR: LGTS 200120Z 10004KT 7000 FEW010 14/13 Q1021 NOSIG

时间: 04:53 (01:53 UTC)

预报

该预报发布于2小时和53分钟前的23:00 UTC
预报有效从20日的 00点(UTC)到 20日的 24点(UTC)
风速3节,风向多变
能見度: 5000
散云层高于500英尺
轻雾
几率 40%
从 20日的 03点(UTC)到 20日的 06点(UTC)
能見度: 0500
多云层高于200英尺
成为
从 20日的 09点(UTC)到 20日的 11点(UTC)
能见度10公里或以上
少量云层高于2000英尺

TAF: LGTS 192300Z 2000/2024 VRB03KT 5000 BR SCT005 PROB40 2003/2006 0500 FG BKN002 BECMG 2009/2011 9999 FEW020

超过4000个机场的气象观测和天气预报(METAR&TAF报告)。

可查询的气象台以黄色和红色小点在地图上表示。

将鼠标移到小点上方,可查看气象台名称。

然后点击查看天气观测和预报。

如需切换地图:点击带黑十字的绿色按钮放大地图;点击带横线的绿色按钮缩小地图;或者点击绿色箭头查看邻近地区的地图。


METAR-TAF: